createdAt,value
2023-01-20T00:00:17.346Z,6.599
2023-01-20T00:01:16.808Z,6.199
2023-01-20T00:02:16.863Z,6.5
2023-01-20T00:03:16.940Z,6.300
2023-01-20T00:04:16.919Z,7
2023-01-20T00:06:16.894Z,7.099
2023-01-20T00:07:17.123Z,6.599
2023-01-20T00:08:17.063Z,6.699
2023-01-20T00:09:16.959Z,6
2023-01-20T00:10:16.838Z,7.099
2023-01-20T00:11:16.766Z,6.199
2023-01-20T00:12:16.597Z,6.699
2023-01-20T00:15:16.490Z,6.300
2023-01-20T00:16:16.375Z,6.5
2023-01-20T00:18:16.476Z,6.900
2023-01-20T00:19:16.573Z,6.300
2023-01-20T00:20:16.342Z,6.199
2023-01-20T00:21:16.615Z,6.400
2023-01-20T00:22:16.499Z,6.800
2023-01-20T00:23:16.469Z,6.5
2023-01-20T00:25:16.752Z,6.199
2023-01-20T00:26:16.831Z,6.5
2023-01-20T00:28:15.974Z,6.599
2023-01-20T00:29:17.242Z,6.400
2023-01-20T00:30:16.298Z,6.599
2023-01-20T00:31:16.351Z,6.199
2023-01-20T00:33:16.750Z,6.400
2023-01-20T00:34:16.598Z,6.599
2023-01-20T00:35:16.780Z,6.300
2023-01-20T00:36:16.639Z,6.900
2023-01-20T00:37:16.727Z,6.300
2023-01-20T00:38:16.492Z,6.199
2023-01-20T00:39:16.657Z,6.800
2023-01-20T00:40:16.843Z,6.199
2023-01-20T00:41:16.696Z,6.400
2023-01-20T00:42:16.478Z,7
2023-01-20T00:43:16.448Z,6.400
2023-01-20T00:44:16.335Z,6.699
2023-01-20T00:45:16.603Z,6.800
2023-01-20T00:46:16.557Z,6.300
2023-01-20T00:47:16.349Z,6.400
2023-01-20T00:51:16.761Z,6.699
2023-01-20T00:52:16.689Z,6.599
2023-01-20T00:53:16.764Z,6.800
2023-01-20T00:54:16.583Z,6.699
2023-01-20T00:55:16.772Z,6.599
2023-01-20T00:56:16.133Z,6.300
2023-01-20T00:57:16.802Z,6.800
2023-01-20T00:58:16.570Z,6.599
2023-01-20T00:59:16.401Z,6.800
2023-01-20T01:00:16.760Z,7.099
2023-01-20T01:01:19.354Z,6.699
2023-01-20T01:02:16.502Z,6.5
2023-01-20T01:03:16.524Z,6.199
2023-01-20T01:04:16.272Z,7.099
2023-01-20T01:05:16.204Z,6.699
2023-01-20T01:06:16.161Z,6.400
2023-01-20T01:07:16.258Z,6.300
2023-01-20T01:08:16.963Z,6.800
2023-01-20T01:09:17.317Z,6.699
2023-01-20T01:10:16.059Z,6.5
2023-01-20T01:11:16.343Z,6.400
2023-01-20T01:12:16.749Z,6.900
2023-01-20T01:13:16.586Z,6
2023-01-20T01:14:16.002Z,6.199
2023-01-20T01:15:16.508Z,6.400
2023-01-20T01:16:16.068Z,6.300
2023-01-20T01:18:15.871Z,6.400
2023-01-20T01:19:17.020Z,6.5
2023-01-20T01:20:16.764Z,6.599
2023-01-20T01:22:16.333Z,6.5
2023-01-20T01:23:16.294Z,6.199
2023-01-20T01:24:16.088Z,6.900
2023-01-20T01:25:16.408Z,5.900
2023-01-20T01:26:16.292Z,6.300
2023-01-20T01:27:16.595Z,6.599
2023-01-20T01:28:16.078Z,6.400
2023-01-20T01:29:16.837Z,6.5
2023-01-20T01:30:17.757Z,6.400
2023-01-20T01:31:16.748Z,6.099
2023-01-20T01:32:16.501Z,6.300
2023-01-20T01:33:16.592Z,6.5
2023-01-20T01:34:16.623Z,7.099
2023-01-20T01:35:17.038Z,6.5
2023-01-20T01:36:16.752Z,6.400
2023-01-20T01:37:16.607Z,6.300
2023-01-20T01:38:16.047Z,6.5
2023-01-20T01:40:16.511Z,6.699
2023-01-20T01:41:16.635Z,6.400
2023-01-20T01:42:16.546Z,7
2023-01-20T01:43:16.513Z,6.900
2023-01-20T01:44:16.342Z,6.599
2023-01-20T01:45:16.760Z,6.400
2023-01-20T01:46:16.290Z,6.599
2023-01-20T01:47:16.208Z,6.699
2023-01-20T01:48:16.691Z,6.599
2023-01-20T01:49:16.147Z,6.400
2023-01-20T01:50:17.220Z,7.099
2023-01-20T01:51:16.250Z,6.800
2023-01-20T01:52:16.031Z,6.599
2023-01-20T01:53:16.748Z,6.800
2023-01-20T01:54:16.358Z,6.599
2023-01-20T01:55:16.493Z,6.400
2023-01-20T01:56:16.093Z,6.300
2023-01-20T01:57:16.220Z,6.599
2023-01-20T01:59:16.439Z,6.099
2023-01-20T02:00:16.960Z,6.199
2023-01-20T02:01:16.842Z,6.400
2023-01-20T02:02:17.212Z,7
2023-01-20T02:03:15.877Z,6.699
2023-01-20T02:04:16.884Z,6.400
2023-01-20T02:05:17.326Z,6.5
2023-01-20T02:06:16.207Z,6.400
2023-01-20T02:07:16.517Z,6.5
2023-01-20T02:08:16.106Z,6.199
2023-01-20T02:09:16.433Z,6.599
2023-01-20T02:10:16.218Z,6.699
2023-01-20T02:11:16.164Z,6.5
2023-01-20T02:12:16.927Z,6.400
2023-01-20T02:13:16.568Z,6.5
2023-01-20T02:14:16.349Z,6.400
2023-01-20T02:15:16.758Z,6.800
2023-01-20T02:16:16.271Z,6.699
2023-01-20T02:17:16.388Z,6.900
2023-01-20T02:18:16.163Z,6.300
2023-01-20T02:19:16.848Z,6
2023-01-20T02:20:16.530Z,6.400
2023-01-20T02:21:16.344Z,5.800
2023-01-20T02:22:16.631Z,6.300
2023-01-20T02:23:16.353Z,6.099
2023-01-20T02:24:16.914Z,5.900
2023-01-20T02:25:17.412Z,6.099
2023-01-20T02:26:16.070Z,6.300
2023-01-20T02:27:16.639Z,6.199
2023-01-20T02:28:17.048Z,6.099
2023-01-20T02:29:16.808Z,6.300
2023-01-20T02:30:16.767Z,6.099
2023-01-20T02:31:17.197Z,6.199
2023-01-20T02:32:16.325Z,6
2023-01-20T02:33:16.074Z,6.400
2023-01-20T02:34:16.983Z,6.099
2023-01-20T02:35:17.321Z,6.599
2023-01-20T02:36:16.753Z,6.199
2023-01-20T02:37:16.557Z,5.800
2023-01-20T02:38:16.257Z,6.099
2023-01-20T02:39:27.273Z,6
2023-01-20T02:40:16.257Z,5.900
2023-01-20T02:41:16.178Z,7.199
2023-01-20T02:42:17.091Z,6.099
2023-01-20T02:45:16.695Z,6
2023-01-20T02:46:16.535Z,6.199
2023-01-20T02:47:16.110Z,5.699
2023-01-20T02:48:16.602Z,6.099
2023-01-20T02:49:16.344Z,6.300
2023-01-20T02:50:16.465Z,6.199
2023-01-20T02:51:16.465Z,6.300
2023-01-20T02:52:16.137Z,6
2023-01-20T02:55:16.891Z,6.400
2023-01-20T02:56:16.743Z,6.199
2023-01-20T02:57:16.592Z,6.099
2023-01-20T02:58:16.897Z,6.199
2023-01-20T02:59:16.846Z,5.800
2023-01-20T03:00:17.409Z,6.099
2023-01-20T03:01:16.738Z,6
2023-01-20T03:03:17.174Z,6.099
2023-01-20T03:04:16.377Z,6.599
2023-01-20T03:05:16.862Z,5.800
2023-01-20T03:07:17.368Z,6.099
2023-01-20T03:08:16.742Z,5.699
2023-01-20T03:09:16.874Z,5.900
2023-01-20T03:10:16.750Z,5.400
2023-01-20T03:11:16.957Z,5.900
2023-01-20T03:12:16.649Z,5.599
2023-01-20T03:13:16.577Z,5.699
2023-01-20T03:14:16.121Z,5.800
2023-01-20T03:15:16.603Z,5.900
2023-01-20T03:16:16.159Z,5.699
2023-01-20T03:18:16.453Z,5.199
2023-01-20T03:19:16.439Z,5.400
2023-01-20T03:21:16.021Z,5.599
2023-01-20T03:22:15.833Z,5.5
2023-01-20T03:23:16.445Z,5.400
2023-01-20T03:24:16.233Z,5.099
2023-01-20T03:25:16.559Z,5.300
2023-01-20T03:26:16.242Z,5.099
2023-01-20T03:27:16.081Z,5.300
2023-01-20T03:28:16.865Z,5.199
2023-01-20T03:29:16.420Z,5.900
2023-01-20T03:30:16.723Z,5.699
2023-01-20T03:31:16.418Z,5.599
2023-01-20T03:34:16.675Z,5.300
2023-01-20T03:35:16.718Z,5.099
2023-01-20T03:36:16.421Z,5.5
2023-01-20T03:37:16.127Z,5.199
2023-01-20T03:38:16.518Z,5.699
2023-01-20T03:39:16.371Z,5.400
2023-01-20T03:40:16.201Z,5.5
2023-01-20T03:41:16.016Z,5.300
2023-01-20T03:42:16.909Z,5.400
2023-01-20T03:43:16.559Z,5.699
2023-01-20T03:44:16.256Z,5.5
2023-01-20T03:46:16.395Z,5.599
2023-01-20T03:47:16.073Z,5
2023-01-20T03:48:16.600Z,5.300
2023-01-20T03:49:16.443Z,5.400
2023-01-20T03:50:17.147Z,5.199
2023-01-20T03:51:16.737Z,5.400
2023-01-20T03:52:16.196Z,5.5
2023-01-20T03:53:16.326Z,5
2023-01-20T03:54:16.463Z,5.199
2023-01-20T03:56:16.189Z,5.099
2023-01-20T03:57:16.226Z,5.300
2023-01-20T03:58:16.084Z,5.400
2023-01-20T03:59:16.075Z,5.300
2023-01-20T04:00:17.035Z,5
2023-01-20T04:01:18.768Z,5.699
2023-01-20T04:02:17.083Z,5.300
2023-01-20T04:03:17.071Z,5.199
2023-01-20T04:04:16.735Z,5.400
2023-01-20T04:08:16.801Z,5.300
2023-01-20T04:09:16.443Z,4.699
2023-01-20T04:10:16.408Z,5.099
2023-01-20T04:11:16.214Z,5.400
2023-01-20T04:12:16.162Z,5.300
2023-01-20T04:14:16.285Z,5.199
2023-01-20T04:16:16.761Z,5.300
2023-01-20T04:18:16.574Z,4.800
2023-01-20T04:19:15.984Z,5
2023-01-20T04:20:16.707Z,5.199
2023-01-20T04:21:16.574Z,5
2023-01-20T04:22:16.337Z,4.900
2023-01-20T04:23:15.978Z,5.099
2023-01-20T04:24:16.151Z,4.800
2023-01-20T04:25:16.691Z,5.300
2023-01-20T04:26:16.988Z,5
2023-01-20T04:27:17.069Z,5.099
2023-01-20T04:28:16.863Z,4.900
2023-01-20T04:29:16.769Z,5.400
2023-01-20T04:30:16.521Z,5
2023-01-20T04:31:29.709Z,5.599
2023-01-20T04:32:16.304Z,5.5
2023-01-20T04:33:17.022Z,5.599
2023-01-20T04:34:16.789Z,5.199
2023-01-20T04:36:16.109Z,4.900
2023-01-20T04:37:16.836Z,5.699
2023-01-20T04:38:16.721Z,5.300
2023-01-20T04:39:16.843Z,5.400
2023-01-20T04:40:16.996Z,5.900
2023-01-20T04:41:16.575Z,5.599
2023-01-20T04:42:16.412Z,5.800
2023-01-20T04:43:16.227Z,5.699
2023-01-20T04:44:16.285Z,5.5
2023-01-20T04:45:16.979Z,5.599
2023-01-20T04:46:16.544Z,5.400
2023-01-20T04:47:16.566Z,5.300
2023-01-20T04:48:16.801Z,5.099
2023-01-20T04:50:16.763Z,5.300
2023-01-20T04:52:16.392Z,5.5
2023-01-20T04:56:16.824Z,4.900
2023-01-20T04:57:16.638Z,5.400
2023-01-20T05:01:17.012Z,5
2023-01-20T05:02:16.930Z,5.099
2023-01-20T05:03:16.482Z,4.800
2023-01-20T05:04:16.697Z,5
2023-01-20T05:05:17.352Z,4.800
2023-01-20T05:06:16.609Z,5.099
2023-01-20T05:07:16.695Z,4.900
2023-01-20T05:08:16.855Z,5.199
2023-01-20T05:09:16.720Z,5
2023-01-20T05:10:16.532Z,5.099
2023-01-20T05:11:16.642Z,4.800
2023-01-20T05:12:16.748Z,5.099
2023-01-20T05:13:16.551Z,5
2023-01-20T05:14:16.855Z,4.900
2023-01-20T05:15:17.328Z,5.300
2023-01-20T05:16:16.627Z,5.5
2023-01-20T05:17:17.289Z,5.099
2023-01-20T05:18:16.661Z,4.900
2023-01-20T05:19:16.757Z,5.199
2023-01-20T05:20:16.452Z,5.099
2023-01-20T05:21:16.574Z,5.199
2023-01-20T05:23:16.272Z,5.099
2023-01-20T05:24:17.012Z,4.900
2023-01-20T05:25:16.854Z,5
2023-01-20T05:27:16.679Z,5.199
2023-01-20T05:28:16.839Z,5.599
2023-01-20T05:29:16.855Z,5.300
2023-01-20T05:30:17.020Z,5.699
2023-01-20T05:31:17.075Z,5.800
2023-01-20T05:32:17.205Z,5.400
2023-01-20T05:33:17.064Z,5.599
2023-01-20T05:34:16.880Z,5.199
2023-01-20T05:37:16.407Z,5.599
2023-01-20T05:38:16.272Z,5.900
2023-01-20T05:39:16.932Z,5.300
2023-01-20T05:41:16.626Z,5.099
2023-01-20T05:42:16.443Z,5.400
2023-01-20T05:43:16.417Z,5.300
2023-01-20T05:44:16.385Z,5.599
2023-01-20T05:45:17.344Z,5.699
2023-01-20T05:46:16.568Z,5.300
2023-01-20T05:47:16.371Z,5.400
2023-01-20T05:48:16.307Z,5.5
2023-01-20T05:49:16.369Z,5.400
2023-01-20T05:50:16.676Z,4.800
2023-01-20T05:51:16.943Z,5.199
2023-01-20T05:52:16.683Z,5.099
2023-01-20T05:53:16.800Z,5.5
2023-01-20T05:54:16.854Z,5.599
2023-01-20T05:55:17.067Z,5.400
2023-01-20T05:56:16.518Z,5.699
2023-01-20T05:58:16.274Z,5.599
2023-01-20T05:59:16.599Z,5.699
2023-01-20T06:00:17.799Z,5.599
2023-01-20T06:01:17.294Z,5.199
2023-01-20T06:02:16.231Z,5.5
2023-01-20T06:03:16.402Z,5.699
2023-01-20T06:04:16.485Z,5.599
2023-01-20T06:05:17.144Z,5.099
2023-01-20T06:06:17.015Z,5.300
2023-01-20T06:10:17.257Z,6
2023-01-20T06:11:16.430Z,5.900
2023-01-20T06:12:16.409Z,5.800
2023-01-20T06:13:16.406Z,5.599
2023-01-20T06:14:16.616Z,5.5
2023-01-20T06:17:21.659Z,6
2023-01-20T06:18:16.697Z,5.699
2023-01-20T06:19:17.317Z,5.300
2023-01-20T06:20:16.812Z,5.900
2023-01-20T06:21:17.081Z,4.800
2023-01-20T06:22:17.095Z,5.800
2023-01-20T06:23:17.195Z,5.5
2023-01-20T06:24:16.895Z,5.900
2023-01-20T06:25:17.378Z,6
2023-01-20T06:26:16.685Z,5.599
2023-01-20T06:27:17.192Z,6
2023-01-20T06:28:16.361Z,5.800
2023-01-20T06:29:16.764Z,5.599
2023-01-20T06:30:17.115Z,5.199
2023-01-20T06:31:16.769Z,5.699
2023-01-20T06:32:16.805Z,5.800
2023-01-20T06:33:16.977Z,6.099
2023-01-20T06:35:17.047Z,5.699
2023-01-20T06:36:16.372Z,6.400
2023-01-20T06:37:16.562Z,6.300
2023-01-20T06:38:16.180Z,6.099
2023-01-20T06:39:16.252Z,5.599
2023-01-20T06:40:16.053Z,6.5
2023-01-20T06:41:16.300Z,6
2023-01-20T06:42:16.319Z,5.800
2023-01-20T06:44:16.177Z,5.599
2023-01-20T06:45:16.741Z,5.699
2023-01-20T06:46:16.406Z,5.300
2023-01-20T06:47:16.414Z,5.800
2023-01-20T06:48:16.566Z,5.400
2023-01-20T06:49:16.735Z,5.900
2023-01-20T06:50:17.135Z,5.599
2023-01-20T06:52:16.786Z,6.099
2023-01-20T06:53:16.402Z,5.699
2023-01-20T06:54:16.795Z,5.5
2023-01-20T06:55:16.893Z,5.400
2023-01-20T06:56:16.199Z,5.699
2023-01-20T06:57:16.634Z,5.5
2023-01-20T06:58:16.465Z,6
2023-01-20T06:59:16.583Z,6.099
2023-01-20T07:00:17.966Z,5.199
2023-01-20T07:01:39.058Z,5.900
2023-01-20T07:02:16.684Z,6
2023-01-20T07:03:16.928Z,5.599
2023-01-20T07:04:16.405Z,6.099
2023-01-20T07:05:17.068Z,5.599
2023-01-20T07:06:16.855Z,5.900
2023-01-20T07:07:16.445Z,6
2023-01-20T07:09:16.685Z,6.199
2023-01-20T07:10:16.784Z,5.900
2023-01-20T07:11:16.967Z,5.800
2023-01-20T07:12:16.252Z,5.900
2023-01-20T07:13:16.461Z,6.199
2023-01-20T07:14:16.654Z,5.800
2023-01-20T07:15:17.207Z,6.5
2023-01-20T07:16:16.799Z,5.900
2023-01-20T07:17:16.584Z,6.099
2023-01-20T07:18:17.203Z,5.900
2023-01-20T07:19:17.012Z,6.300
2023-01-20T07:20:16.754Z,5.800
2023-01-20T07:21:16.514Z,5.5
2023-01-20T07:22:16.980Z,5.900
2023-01-20T07:23:16.336Z,5.800
2023-01-20T07:24:16.236Z,5.699
2023-01-20T07:25:17.032Z,6.199
2023-01-20T07:26:16.705Z,5.900
2023-01-20T07:27:16.178Z,6
2023-01-20T07:28:16.272Z,5.5
2023-01-20T07:29:18.001Z,6.300
2023-01-20T07:30:17.377Z,5.900
2023-01-20T07:31:16.830Z,5.800
2023-01-20T07:32:16.753Z,5.900
2023-01-20T07:33:16.506Z,5.699
2023-01-20T07:34:16.165Z,5.300
2023-01-20T07:35:16.966Z,5.699
2023-01-20T07:36:16.668Z,5.300
2023-01-20T07:37:17.466Z,5.599
2023-01-20T07:38:16.795Z,5.699
2023-01-20T07:39:17.346Z,5.300
2023-01-20T07:41:16.606Z,5.800
2023-01-20T07:42:16.023Z,5.599
2023-01-20T07:43:17.159Z,5.5
2023-01-20T07:44:16.217Z,5.099
2023-01-20T07:45:17.362Z,5
2023-01-20T07:46:16.515Z,6
2023-01-20T07:47:17.732Z,5.5
2023-01-20T07:48:16.791Z,5.099
2023-01-20T07:49:16.694Z,5.800
2023-01-20T07:50:16.700Z,5.400
2023-01-20T07:51:16.541Z,5.699
2023-01-20T07:52:16.901Z,5.5
2023-01-20T07:53:16.957Z,5.400
2023-01-20T07:54:16.688Z,5.099
2023-01-20T07:55:17.426Z,5.599
2023-01-20T07:56:16.906Z,5.400
2023-01-20T07:57:16.559Z,5.199
2023-01-20T07:58:17.310Z,5.300
2023-01-20T07:59:18.446Z,5.5
2023-01-20T08:00:18.233Z,5.400
2023-01-20T08:01:17.167Z,5.099
2023-01-20T08:03:17.479Z,5.300
2023-01-20T08:04:17.264Z,4.900
2023-01-20T08:05:17.251Z,5.5
2023-01-20T08:06:16.832Z,5.099
2023-01-20T08:07:16.450Z,5
2023-01-20T08:08:17.232Z,6.199
2023-01-20T08:09:16.847Z,6
2023-01-20T08:10:16.565Z,6.199
2023-01-20T08:11:16.623Z,5.800
2023-01-20T08:12:17.365Z,6
2023-01-20T08:14:16.634Z,5.599
2023-01-20T08:15:17.659Z,5.300
2023-01-20T08:16:17.171Z,5.800
2023-01-20T08:17:16.897Z,6.199
2023-01-20T08:18:16.468Z,6.099
2023-01-20T08:19:17.447Z,6.599
2023-01-20T08:20:19.618Z,6.699
2023-01-20T08:21:17.262Z,6.5
2023-01-20T08:22:16.909Z,6.300
2023-01-20T08:23:16.927Z,6
2023-01-20T08:24:16.759Z,5.699
2023-01-20T08:25:17.527Z,5.599
2023-01-20T08:26:17.037Z,6
2023-01-20T08:27:17.071Z,5.400
2023-01-20T08:28:17.044Z,5.699
2023-01-20T08:29:17.254Z,5.900
2023-01-20T08:30:17.139Z,5.699
2023-01-20T08:32:17.071Z,5.599
2023-01-20T08:33:17.057Z,5.5
2023-01-20T08:35:17.156Z,5.699
2023-01-20T08:36:16.869Z,5.800
2023-01-20T08:37:16.838Z,5.599
2023-01-20T08:38:17.203Z,5.300
2023-01-20T08:39:17.008Z,5.5
2023-01-20T08:40:16.757Z,5.800
2023-01-20T08:41:16.949Z,5.699
2023-01-20T08:42:21.678Z,5.599
2023-01-20T08:43:17.364Z,5.5
2023-01-20T08:44:16.746Z,5.199
2023-01-20T08:45:17.276Z,5.300
2023-01-20T08:46:17.943Z,5.400
2023-01-20T08:47:17.010Z,5.199
2023-01-20T08:48:16.509Z,5.599
2023-01-20T08:49:16.852Z,5.800
2023-01-20T08:50:16.696Z,5.300
2023-01-20T08:51:17.307Z,5.5
2023-01-20T08:52:17.102Z,5.900
2023-01-20T08:53:16.627Z,5.599
2023-01-20T08:54:17.352Z,6.099
2023-01-20T08:55:17.303Z,5.599
2023-01-20T08:57:16.330Z,5.699
2023-01-20T09:00:17.870Z,5.199
2023-01-20T09:03:16.450Z,5.599
2023-01-20T09:04:16.783Z,5.5
2023-01-20T09:05:16.901Z,5.400
2023-01-20T09:06:16.712Z,5
2023-01-20T09:08:16.720Z,4.800
2023-01-20T09:09:16.795Z,4.900
2023-01-20T09:10:16.603Z,4.5
2023-01-20T09:11:16.331Z,5
2023-01-20T09:12:17.003Z,5.199
2023-01-20T09:13:16.660Z,5.099
2023-01-20T09:14:17.071Z,4.800
2023-01-20T09:18:16.303Z,4.5
2023-01-20T09:19:16.788Z,4.800
2023-01-20T09:20:17.472Z,5.099
2023-01-20T09:21:17.022Z,5
2023-01-20T09:23:16.776Z,5.099
2023-01-20T09:24:16.645Z,4.900
2023-01-20T09:25:17.165Z,4.400
2023-01-20T09:26:33.483Z,4.699
2023-01-20T09:27:17.326Z,4.599
2023-01-20T09:28:17.034Z,4.800
2023-01-20T09:29:17.025Z,5.199
2023-01-20T09:30:16.905Z,5.099
2023-01-20T09:31:16.774Z,4.699
2023-01-20T09:32:16.983Z,4.300
2023-01-20T09:33:16.863Z,4.699
2023-01-20T09:34:16.625Z,4.5
2023-01-20T09:35:17.558Z,4.599
2023-01-20T09:36:17.188Z,4.900
2023-01-20T09:37:16.354Z,4.199
2023-01-20T09:38:17.155Z,4.800
2023-01-20T09:39:17.209Z,4.5
2023-01-20T09:40:17.498Z,4.699
2023-01-20T09:41:17.670Z,4.800
2023-01-20T09:42:17.112Z,4.400
2023-01-20T09:43:17.420Z,4.900
2023-01-20T09:44:17.247Z,5
2023-01-20T09:45:17.498Z,4.800
2023-01-20T09:46:16.809Z,4.699
2023-01-20T09:47:17.357Z,5.300
2023-01-20T09:48:16.967Z,4.699
2023-01-20T09:50:17.847Z,5.099
2023-01-20T09:51:16.867Z,5
2023-01-20T09:52:16.460Z,4.900
2023-01-20T09:53:17.078Z,5.300
2023-01-20T09:54:16.837Z,5
2023-01-20T09:55:16.681Z,5.300
2023-01-20T09:56:16.744Z,5.400
2023-01-20T09:57:16.888Z,4.900
2023-01-20T09:58:16.695Z,5.5
2023-01-20T09:59:17.282Z,5.599
2023-01-20T10:00:17.796Z,5.400
2023-01-20T10:02:16.770Z,5.5
2023-01-20T10:03:16.630Z,5.400
2023-01-20T10:04:17.201Z,5.300
2023-01-20T10:05:17.274Z,5.900
2023-01-20T10:06:16.794Z,5.800
2023-01-20T10:07:17.412Z,5.900
2023-01-20T10:08:16.844Z,6.099
2023-01-20T10:09:16.955Z,6.199
2023-01-20T10:10:17.426Z,6
2023-01-20T10:11:17.678Z,5.400
2023-01-20T10:12:16.557Z,5.699
2023-01-20T10:13:17.542Z,6
2023-01-20T10:14:17.201Z,5.699
2023-01-20T10:15:17.191Z,5.900
2023-01-20T10:16:16.797Z,6.199
2023-01-20T10:17:16.988Z,5.599
2023-01-20T10:18:16.653Z,5.800
2023-01-20T10:19:18.687Z,5.5
2023-01-20T10:20:17.169Z,5.800
2023-01-20T10:21:16.824Z,5.400
2023-01-20T10:22:17.307Z,6
2023-01-20T10:23:17.083Z,5.800
2023-01-20T10:24:16.704Z,6.099
2023-01-20T10:25:17.042Z,6
2023-01-20T10:26:16.331Z,6.300
2023-01-20T10:27:17.272Z,6
2023-01-20T10:28:17.392Z,5.900
2023-01-20T10:29:17.288Z,6.099
2023-01-20T10:30:17.322Z,6
2023-01-20T10:31:17.625Z,6.300
2023-01-20T10:32:17.664Z,6.199
2023-01-20T10:33:16.816Z,5.599
2023-01-20T10:34:16.313Z,6.300
2023-01-20T10:35:18.004Z,5.900
2023-01-20T10:36:17.039Z,5.800
2023-01-20T10:37:17.043Z,5.599
2023-01-20T10:39:17.060Z,6
2023-01-20T10:40:17.276Z,5.900
2023-01-20T10:41:19.451Z,5.599
2023-01-20T10:42:17.383Z,5.900
2023-01-20T10:43:17.668Z,5.800
2023-01-20T10:44:16.759Z,5.699
2023-01-20T10:45:18.068Z,5.900
2023-01-20T10:46:17.570Z,5.5
2023-01-20T10:47:17.290Z,5.900
2023-01-20T10:48:16.781Z,5.199
2023-01-20T10:49:17.317Z,5.599
2023-01-20T10:50:18.106Z,5.800
2023-01-20T10:51:16.842Z,5.599
2023-01-20T10:52:17.574Z,5.5
2023-01-20T10:53:16.812Z,6.099
2023-01-20T10:54:16.661Z,5.900
2023-01-20T10:56:16.648Z,5.599
2023-01-20T10:57:16.894Z,5.800
2023-01-20T10:58:16.664Z,6.300
2023-01-20T10:59:16.929Z,6
2023-01-20T11:01:17.047Z,5.699
2023-01-20T11:02:16.956Z,5.5
2023-01-20T11:03:17.304Z,5.599
2023-01-20T11:04:16.896Z,5.900
2023-01-20T11:05:16.951Z,5.5
2023-01-20T11:07:16.760Z,5.900
2023-01-20T11:08:16.281Z,5.599
2023-01-20T11:09:16.988Z,5
2023-01-20T11:10:17.107Z,6
2023-01-20T11:11:17.360Z,5.800
2023-01-20T11:12:17.138Z,5.300
2023-01-20T11:13:16.709Z,5.5
2023-01-20T11:14:17.026Z,5.300
2023-01-20T11:15:17.568Z,5.5
2023-01-20T11:16:16.892Z,5.699
2023-01-20T11:18:17.064Z,6
2023-01-20T11:19:16.866Z,5.699
2023-01-20T11:20:17.047Z,5.400
2023-01-20T11:21:16.621Z,5.699
2023-01-20T11:22:16.553Z,5.400
2023-01-20T11:23:16.706Z,5.800
2023-01-20T11:25:17.896Z,5.599
2023-01-20T11:26:16.646Z,6
2023-01-20T11:27:16.855Z,5.599
2023-01-20T11:28:16.787Z,5.900
2023-01-20T11:29:16.965Z,5.300
2023-01-20T11:30:17.578Z,5.400
2023-01-20T11:31:16.847Z,5.699
2023-01-20T11:34:17.012Z,5.900
2023-01-20T11:35:17.178Z,5.599
2023-01-20T11:36:17.313Z,5.699
2023-01-20T11:37:16.893Z,5.5
2023-01-20T11:38:16.952Z,5.699
2023-01-20T11:39:17.788Z,5.800
2023-01-20T11:40:17.682Z,5.699
2023-01-20T11:41:16.638Z,6.199
2023-01-20T11:43:17.139Z,6
2023-01-20T11:44:17.257Z,6.099
2023-01-20T11:45:21.578Z,5.900
2023-01-20T11:46:16.745Z,6.199
2023-01-20T11:47:17.411Z,6.300
2023-01-20T11:48:17.026Z,5.800
2023-01-20T11:49:17.725Z,5.900
2023-01-20T11:50:17.433Z,6.099
2023-01-20T11:51:39.474Z,5.800
2023-01-20T11:52:17.746Z,6.199
2023-01-20T11:53:17.172Z,6.099
2023-01-20T11:54:17.655Z,5.900
2023-01-20T11:55:17.642Z,6.099
2023-01-20T11:56:17.332Z,6
2023-01-20T11:57:17.881Z,6.5
2023-01-20T11:58:17.279Z,6.699
2023-01-20T11:59:17.444Z,6.800
2023-01-20T12:00:18.533Z,6.900
2023-01-20T12:02:17.463Z,6.199
2023-01-20T12:03:17.251Z,6.5
2023-01-20T12:04:16.875Z,7.199
2023-01-20T12:05:17.048Z,6.800
2023-01-20T12:07:16.956Z,7.099
2023-01-20T12:08:16.523Z,7.699
2023-01-20T12:09:16.936Z,7.599
2023-01-20T12:11:16.825Z,7.199
2023-01-20T12:12:16.552Z,7.699
2023-01-20T12:14:16.794Z,7.900
2023-01-20T12:15:17.050Z,8.100
2023-01-20T12:16:16.737Z,7.900
2023-01-20T12:17:17.109Z,7.599
2023-01-20T12:18:16.817Z,8
2023-01-20T12:19:17.061Z,8.399
2023-01-20T12:20:17.824Z,8
2023-01-20T12:21:17.395Z,8.5
2023-01-20T12:22:17.182Z,8.300
2023-01-20T12:23:16.737Z,8.899
2023-01-20T12:24:17.337Z,8.800
2023-01-20T12:25:17.122Z,8.5
2023-01-20T12:26:17.028Z,8.399
2023-01-20T12:27:16.817Z,8.5
2023-01-20T12:28:16.676Z,8.300
2023-01-20T12:29:16.562Z,8
2023-01-20T12:30:17.233Z,8.100
2023-01-20T12:31:16.456Z,8.199
2023-01-20T12:32:17.088Z,8.699
2023-01-20T12:33:16.735Z,8.300
2023-01-20T12:34:16.956Z,8.600
2023-01-20T12:35:17.302Z,8.399
2023-01-20T12:37:16.487Z,8
2023-01-20T12:41:16.999Z,7.800
2023-01-20T12:42:17.020Z,7.5
2023-01-20T12:43:16.935Z,7.800
2023-01-20T12:44:16.684Z,7.300
2023-01-20T12:45:16.490Z,6.900
2023-01-20T12:47:17.395Z,7.699
2023-01-20T12:48:17.112Z,6.900
2023-01-20T12:49:16.659Z,8.5
2023-01-20T12:50:17.241Z,8.399
2023-01-20T12:51:16.980Z,9.5
2023-01-20T12:52:16.843Z,9.399
2023-01-20T12:53:17.108Z,8.399
2023-01-20T12:54:16.741Z,10.10
2023-01-20T12:55:16.933Z,10.30
2023-01-20T12:56:16.637Z,9.899
2023-01-20T12:57:16.518Z,10
2023-01-20T12:58:17.841Z,8.300
2023-01-20T12:59:17.275Z,8.800
2023-01-20T13:00:18.927Z,9.100
2023-01-20T13:01:16.988Z,9.199
2023-01-20T13:03:16.742Z,8.699
2023-01-20T13:04:16.341Z,9.199
2023-01-20T13:05:17.076Z,8.600
2023-01-20T13:07:16.310Z,8.899
2023-01-20T13:08:16.873Z,8.699
2023-01-20T13:09:16.564Z,8.100
2023-01-20T13:10:18.277Z,7.5
2023-01-20T13:11:16.977Z,8
2023-01-20T13:12:16.999Z,8.199
2023-01-20T13:13:17.224Z,8.399
2023-01-20T13:14:16.909Z,7.199
2023-01-20T13:15:17.429Z,7.5
2023-01-20T13:16:17.451Z,7.599
2023-01-20T13:17:16.514Z,7.199
2023-01-20T13:18:17.067Z,7
2023-01-20T13:19:16.553Z,6.5
2023-01-20T13:20:16.940Z,6.400
2023-01-20T13:22:16.811Z,5.900
2023-01-20T13:23:16.272Z,6.300
2023-01-20T13:24:16.978Z,6.099
2023-01-20T13:25:17.193Z,6.599
2023-01-20T13:26:16.483Z,6.099
2023-01-20T13:27:16.629Z,6.199
2023-01-20T13:28:16.294Z,6.5
2023-01-20T13:29:16.719Z,7.5
2023-01-20T13:30:17.433Z,7.699
2023-01-20T13:31:16.405Z,6.800
2023-01-20T13:32:21.410Z,6.900
2023-01-20T13:33:16.582Z,8
2023-01-20T13:34:16.483Z,9.699
2023-01-20T13:35:17.571Z,8.899
2023-01-20T13:36:17.225Z,8.100
2023-01-20T13:37:16.704Z,8.5
2023-01-20T13:38:16.964Z,8.100
2023-01-20T13:39:16.393Z,7.900
2023-01-20T13:40:16.766Z,7.5
2023-01-20T13:41:16.214Z,10
2023-01-20T13:42:16.285Z,13.5
2023-01-20T13:43:16.761Z,13.80
2023-01-20T13:44:16.606Z,14.39
2023-01-20T13:45:16.450Z,13.80
2023-01-20T13:46:16.562Z,11.10
2023-01-20T13:47:16.715Z,8.300
2023-01-20T13:48:16.798Z,7.800
2023-01-20T13:49:16.423Z,8.199
2023-01-20T13:50:17.309Z,7.599
2023-01-20T13:51:16.327Z,6.800
2023-01-20T13:52:16.463Z,6.199
2023-01-20T13:53:16.383Z,5.900
2023-01-20T13:54:16.044Z,5.5
2023-01-20T13:55:16.242Z,5.699
2023-01-20T13:56:16.723Z,5.599
2023-01-20T13:57:16.436Z,5.699
2023-01-20T13:58:16.841Z,5.599
2023-01-20T13:59:17.000Z,5.900
2023-01-20T14:00:17.073Z,6.099
2023-01-20T14:01:16.653Z,6
2023-01-20T14:02:16.647Z,5.5
2023-01-20T14:03:16.439Z,5.599
2023-01-20T14:04:16.746Z,5.800
2023-01-20T14:05:16.753Z,6.400
2023-01-20T14:06:16.106Z,6.300
2023-01-20T14:07:16.537Z,6.199
2023-01-20T14:08:16.235Z,5.900
2023-01-20T14:09:16.333Z,5.800
2023-01-20T14:10:17.084Z,6.400
2023-01-20T14:11:16.360Z,5.400
2023-01-20T14:12:15.987Z,5.699
2023-01-20T14:13:16.477Z,6.099
2023-01-20T14:14:17.078Z,5.199
2023-01-20T14:15:16.585Z,4.900
2023-01-20T14:16:16.846Z,5.099
2023-01-20T14:17:16.315Z,5.800
2023-01-20T14:18:16.590Z,5.199
2023-01-20T14:19:16.887Z,5.300
2023-01-20T14:20:16.576Z,5
2023-01-20T14:21:16.122Z,5.199
2023-01-20T14:22:16.614Z,5.099
2023-01-20T14:23:16.990Z,4.699
2023-01-20T14:24:16.855Z,5
2023-01-20T14:25:16.657Z,4.900
2023-01-20T14:26:16.422Z,4.5
2023-01-20T14:27:16.907Z,4.699
2023-01-20T14:28:16.155Z,4.300
2023-01-20T14:29:16.442Z,4.400
2023-01-20T14:30:17.006Z,4.199
2023-01-20T14:31:16.697Z,4.699
2023-01-20T14:32:16.492Z,4.400
2023-01-20T14:33:16.605Z,4.699
2023-01-20T14:34:17.231Z,4.800
2023-01-20T14:35:17.145Z,4.5
2023-01-20T14:37:16.508Z,3.900
2023-01-20T14:38:16.951Z,4.099
2023-01-20T14:39:16.502Z,3.900
2023-01-20T14:41:16.075Z,3.799
2023-01-20T14:42:16.131Z,3.700
2023-01-20T14:43:16.277Z,3.400